createdAt,value
2018-05-16T00:01:42.290Z,101251.43
2018-05-16T00:04:10.624Z,101247.73
2018-05-16T00:06:38.982Z,101241.92
2018-05-16T00:09:07.330Z,101246.81
2018-05-16T00:11:35.670Z,101240.16
2018-05-16T00:14:04.104Z,101245.34
2018-05-16T00:16:33.230Z,101241.86
2018-05-16T00:19:01.577Z,101254.89
2018-05-16T00:21:30.714Z,101264.83
2018-05-16T00:23:59.044Z,101265.73
2018-05-16T00:26:27.343Z,101264.88
2018-05-16T00:28:56.455Z,101270.03
2018-05-16T00:31:24.768Z,101263.85
2018-05-16T00:33:53.159Z,101262.45
2018-05-16T00:36:21.864Z,101266.73
2018-05-16T00:38:50.223Z,101267.06
2018-05-16T00:41:18.565Z,101265.91
2018-05-16T00:43:46.927Z,101259.46
2018-05-16T00:46:15.272Z,101253.08
2018-05-16T00:48:43.652Z,101254.78
2018-05-16T00:51:29.694Z,101255.66
2018-05-16T00:53:58.099Z,101260.53
2018-05-16T00:56:26.433Z,101262.08
2018-05-16T00:58:55.607Z,101255.93
2018-05-16T01:01:24.012Z,101256.24
2018-05-16T01:03:53.172Z,101252.34
2018-05-16T01:06:21.569Z,101253.44
2018-05-16T01:08:49.928Z,101259.87
2018-05-16T01:11:18.243Z,101249.59
2018-05-16T01:13:47.048Z,101253.22
2018-05-16T01:16:15.386Z,101240.10
2018-05-16T01:18:43.759Z,101238.42
2018-05-16T01:21:12.178Z,101242.19
2018-05-16T01:23:41.301Z,101242.42
2018-05-16T01:26:09.785Z,101241.45
2018-05-16T01:28:38.934Z,101242.25
2018-05-16T01:31:08.126Z,101228.14
2018-05-16T01:33:36.504Z,101226.39
2018-05-16T01:36:05.150Z,101237.68
2018-05-16T01:38:33.530Z,101235.73
2018-05-16T01:41:01.946Z,101232.57
2018-05-16T01:43:30.455Z,101227.84
2018-05-16T01:45:59.751Z,101223.84
2018-05-16T01:48:28.890Z,101212.27
2018-05-16T01:50:57.354Z,101195.09
2018-05-16T01:53:25.702Z,101200.45
2018-05-16T01:55:54.037Z,101211.98
2018-05-16T01:58:22.735Z,101222.87
2018-05-16T02:00:51.153Z,101231.30
2018-05-16T02:03:19.493Z,101239.97
2018-05-16T02:05:47.892Z,101232.91
2018-05-16T02:08:16.339Z,101239.02
2018-05-16T02:10:44.697Z,101240.61
2018-05-16T02:13:13.123Z,101235.62
2018-05-16T02:15:41.513Z,101238.19
2018-05-16T02:18:09.920Z,101241.53
2018-05-16T02:20:38.481Z,101238.63
2018-05-16T02:23:06.842Z,101235.38
2018-05-16T02:25:35.235Z,101237.97
2018-05-16T02:28:03.621Z,101235.33
2018-05-16T02:30:31.964Z,101233.11
2018-05-16T02:33:00.323Z,101233.55
2018-05-16T02:35:28.701Z,101232.78
2018-05-16T02:37:57.049Z,101232.06
2018-05-16T02:40:26.309Z,101225.97
2018-05-16T02:42:55.033Z,101229.55
2018-05-16T02:45:23.435Z,101226.93
2018-05-16T02:47:51.759Z,101224.31
2018-05-16T02:50:20.135Z,101218.05
2018-05-16T02:52:48.549Z,101207.78
2018-05-16T02:55:16.921Z,101217.71
2018-05-16T02:57:45.327Z,101215.16
2018-05-16T03:00:14.441Z,101211.98
2018-05-16T03:02:42.777Z,101208.73
2018-05-16T03:05:11.338Z,101208.84
2018-05-16T03:07:39.724Z,101210.01
2018-05-16T03:10:08.123Z,101214.75
2018-05-16T03:12:36.824Z,101208.61
2018-05-16T03:15:06.003Z,101209.32
2018-05-16T03:17:34.383Z,101216.80
2018-05-16T03:20:02.866Z,101216.96
2018-05-16T03:22:31.274Z,101219.36
2018-05-16T03:24:59.686Z,101212.80
2018-05-16T03:27:28.932Z,101222.56
2018-05-16T03:29:58.358Z,101220.69
2018-05-16T03:32:27.512Z,101221.16
2018-05-16T03:34:55.912Z,101237.73
2018-05-16T03:37:24.293Z,101243.94
2018-05-16T03:39:52.750Z,101239.82
2018-05-16T03:42:21.149Z,101230.93
2018-05-16T03:44:49.509Z,101226.44
2018-05-16T03:47:17.904Z,101219.21
2018-05-16T03:49:46.608Z,101228.81
2018-05-16T03:52:15.708Z,101230.52
2018-05-16T03:54:44.194Z,101240.00
2018-05-16T04:00:41.245Z,101241.02
2018-05-16T04:03:27.324Z,101244.41
2018-05-16T04:05:55.796Z,101236.40
2018-05-16T04:08:24.919Z,101242.63
2018-05-16T04:10:53.708Z,101240.37
2018-05-16T04:13:22.125Z,101236.97
2018-05-16T04:15:50.536Z,101242.34
2018-05-16T04:18:18.956Z,101243.39
2018-05-16T04:20:48.148Z,101241.29
2018-05-16T04:23:16.514Z,101239.48
2018-05-16T04:25:44.986Z,101241.36
2018-05-16T04:28:13.554Z,101242.72
2018-05-16T04:30:41.983Z,101245.73
2018-05-16T04:33:10.997Z,101238.70
2018-05-16T04:35:40.183Z,101241.23
2018-05-16T04:38:08.613Z,101233.45
2018-05-16T04:40:37.097Z,101228.62
2018-05-16T04:43:05.512Z,101230.75
2018-05-16T04:45:33.992Z,101232.59
2018-05-16T04:48:02.372Z,101236.31
2018-05-16T04:50:30.751Z,101235.48
2018-05-16T04:52:59.179Z,101235.23
2018-05-16T04:55:28.022Z,101236.73
2018-05-16T04:57:56.407Z,101234.83
2018-05-16T05:00:24.807Z,101239.17
2018-05-16T05:02:53.999Z,101244.57
2018-05-16T05:05:23.262Z,101247.22
2018-05-16T05:07:51.639Z,101251.77
2018-05-16T05:10:20.124Z,101245.00
2018-05-16T05:12:48.459Z,101240.66
2018-05-16T05:15:16.809Z,101244.58
2018-05-16T05:17:46.211Z,101248.59
2018-05-16T05:20:15.389Z,101248.27
2018-05-16T05:22:44.693Z,101250.72
2018-05-16T05:25:13.088Z,101246.59
2018-05-16T05:27:41.395Z,101250.17
2018-05-16T05:30:09.827Z,101248.80
2018-05-16T05:32:38.491Z,101241.50
2018-05-16T05:35:06.979Z,101250.13
2018-05-16T05:37:35.522Z,101245.07
2018-05-16T05:40:04.107Z,101245.72
2018-05-16T05:42:33.268Z,101248.86
2018-05-16T05:45:02.250Z,101255.99
2018-05-16T05:47:30.758Z,101256.04
2018-05-16T05:49:59.150Z,101260.55
2018-05-16T05:52:27.455Z,101263.02
2018-05-16T05:54:55.818Z,101264.34
2018-05-16T05:57:24.963Z,101262.05
2018-05-16T05:59:53.311Z,101269.61
2018-05-16T06:02:21.775Z,101270.02
2018-05-16T06:04:50.130Z,101266.34
2018-05-16T06:07:19.307Z,101272.38
2018-05-16T06:09:47.678Z,101268.57
2018-05-16T06:12:16.013Z,101260.34
2018-05-16T06:14:45.119Z,101266.86
2018-05-16T06:17:13.513Z,101265.04
2018-05-16T06:19:41.947Z,101265.38
2018-05-16T06:22:10.287Z,101264.90
2018-05-16T06:24:39.023Z,101266.26
2018-05-16T06:27:08.177Z,101272.15
2018-05-16T06:29:37.235Z,101268.55
2018-05-16T06:32:05.577Z,101270.88
2018-05-16T06:34:33.927Z,101268.73
2018-05-16T06:37:03.246Z,101269.25
2018-05-16T06:39:31.687Z,101277.61
2018-05-16T06:41:59.970Z,101281.44
2018-05-16T06:44:28.280Z,101279.48
2018-05-16T06:46:57.319Z,101278.73
2018-05-16T06:49:25.747Z,101269.31
2018-05-16T06:51:54.090Z,101279.36
2018-05-16T06:54:22.469Z,101271.97
2018-05-16T06:56:50.819Z,101274.19
2018-05-16T06:59:19.165Z,101276.35
2018-05-16T07:01:47.514Z,101275.45
2018-05-16T07:04:15.820Z,101280.92
2018-05-16T07:06:44.132Z,101272.97
2018-05-16T07:09:12.866Z,101273.95
2018-05-16T07:11:41.191Z,101265.28
2018-05-16T07:14:09.513Z,101269.55
2018-05-16T07:16:37.895Z,101264.25
2018-05-16T07:19:06.231Z,101268.77
2018-05-16T07:21:34.587Z,101264.79
2018-05-16T07:24:02.950Z,101259.60
2018-05-16T07:26:31.312Z,101264.34
2018-05-16T07:28:59.647Z,101268.41
2018-05-16T07:31:28.355Z,101272.50
2018-05-16T07:33:56.669Z,101271.34
2018-05-16T07:36:24.981Z,101269.06
2018-05-16T07:38:53.330Z,101267.55
2018-05-16T07:41:21.668Z,101267.03
2018-05-16T07:43:49.978Z,101262.42
2018-05-16T07:46:18.333Z,101262.16
2018-05-16T07:48:47.825Z,101264.09
2018-05-16T07:51:16.980Z,101255.58
2018-05-16T07:53:45.543Z,101262.04
2018-05-16T07:56:13.898Z,101264.21
2018-05-16T07:58:42.251Z,101273.16
2018-05-16T08:01:10.783Z,101265.67
2018-05-16T08:03:39.095Z,101266.88
2018-05-16T08:06:07.435Z,101268.80
2018-05-16T08:08:35.822Z,101267.19
2018-05-16T08:11:04.130Z,101272.61
2018-05-16T08:13:33.258Z,101267.05
2018-05-16T08:16:02.587Z,101259.22
2018-05-16T08:18:30.936Z,101257.92
2018-05-16T08:21:00.019Z,101254.66
2018-05-16T08:23:28.367Z,101247.37
2018-05-16T08:25:56.676Z,101245.22
2018-05-16T08:28:24.994Z,101241.86
2018-05-16T08:30:53.374Z,101244.14
2018-05-16T08:33:21.693Z,101246.84
2018-05-16T08:35:50.038Z,101243.61
2018-05-16T08:38:18.509Z,101243.83
2018-05-16T08:40:46.839Z,101250.83
2018-05-16T08:43:15.156Z,101238.25
2018-05-16T08:45:43.536Z,101233.63
2018-05-16T08:48:12.761Z,101228.23
2018-05-16T08:50:41.110Z,101229.59
2018-05-16T08:53:10.248Z,101224.29
2018-05-16T08:55:38.822Z,101224.88
2018-05-16T08:58:07.164Z,101224.56
2018-05-16T09:00:36.772Z,101226.63
2018-05-16T09:03:05.096Z,101228.66
2018-05-16T09:05:33.461Z,101224.61
2018-05-16T09:08:01.823Z,101222.11
2018-05-16T09:10:30.184Z,101221.28
2018-05-16T09:12:59.279Z,101218.30
2018-05-16T09:15:28.419Z,101220.89
2018-05-16T09:17:56.771Z,101226.03
2018-05-16T09:20:25.107Z,101226.25
2018-05-16T09:22:53.728Z,101234.49
2018-05-16T09:25:22.041Z,101231.52
2018-05-16T09:27:50.382Z,101225.55
2018-05-16T09:30:19.505Z,101220.98
2018-05-16T09:32:47.860Z,101223.34
2018-05-16T09:35:16.196Z,101213.96
2018-05-16T09:37:44.569Z,101215.06
2018-05-16T09:40:12.934Z,101208.80
2018-05-16T09:42:41.306Z,101204.57
2018-05-16T09:45:09.740Z,101209.05
2018-05-16T09:47:38.121Z,101204.60
2018-05-16T09:50:06.474Z,101210.54
2018-05-16T09:52:34.837Z,101210.41
2018-05-16T09:55:03.174Z,101202.09
2018-05-16T09:57:31.517Z,101197.67
2018-05-16T09:59:59.862Z,101205.78
2018-05-16T10:02:28.239Z,101213.53
2018-05-16T10:04:56.548Z,101211.19
2018-05-16T10:07:25.241Z,101209.69
2018-05-16T10:09:53.613Z,101201.73
2018-05-16T10:12:21.928Z,101203.48
2018-05-16T10:14:50.277Z,101203.61
2018-05-16T10:17:18.625Z,101202.35
2018-05-16T10:19:46.998Z,101199.94
2018-05-16T10:22:15.422Z,101197.06
2018-05-16T10:24:43.796Z,101195.91
2018-05-16T10:27:12.152Z,101199.69
2018-05-16T10:29:40.892Z,101197.81
2018-05-16T10:32:09.247Z,101196.97
2018-05-16T10:34:37.704Z,101198.05
2018-05-16T10:37:12.664Z,101198.47
2018-05-16T10:39:41.061Z,101197.11
2018-05-16T10:42:10.185Z,101196.34
2018-05-16T10:44:38.540Z,101190.01
2018-05-16T10:47:06.871Z,101192.53
2018-05-16T10:49:35.204Z,101187.50
2018-05-16T10:52:04.609Z,101193.06
2018-05-16T10:54:33.748Z,101186.00
2018-05-16T10:57:02.096Z,101182.44
2018-05-16T10:59:31.216Z,101186.23
2018-05-16T11:01:59.562Z,101181.69
2018-05-16T11:04:28.650Z,101180.03
2018-05-16T11:06:56.994Z,101164.88
2018-05-16T11:09:25.320Z,101178.27
2018-05-16T11:11:54.411Z,101169.36
2018-05-16T11:14:23.204Z,101177.31
2018-05-16T11:16:51.524Z,101186.61
2018-05-16T11:19:19.838Z,101180.55
2018-05-16T11:21:48.233Z,101171.44
2018-05-16T11:24:16.573Z,101174.07
2018-05-16T11:26:44.912Z,101172.58
2018-05-16T11:29:13.252Z,101171.61
2018-05-16T11:31:41.613Z,101165.00
2018-05-16T11:34:09.985Z,101160.06
2018-05-16T11:36:38.510Z,101162.28
2018-05-16T11:39:07.584Z,101162.55
2018-05-16T11:41:35.924Z,101162.17
2018-05-16T11:44:04.283Z,101168.93
2018-05-16T11:46:32.632Z,101162.03
2018-05-16T11:49:00.933Z,101155.91
2018-05-16T11:51:30.092Z,101158.28
2018-05-16T11:53:58.462Z,101157.86
2018-05-16T11:56:26.796Z,101153.12
2018-05-16T11:58:55.517Z,101153.34
2018-05-16T12:01:23.845Z,101148.38
2018-05-16T12:03:52.956Z,101145.70
2018-05-16T12:06:21.355Z,101151.80
2018-05-16T12:08:49.673Z,101148.68
2018-05-16T12:11:18.080Z,101153.56
2018-05-16T12:13:46.477Z,101143.97
2018-05-16T12:16:14.797Z,101152.13
2018-05-16T12:18:43.135Z,101144.47
2018-05-16T12:21:12.209Z,101149.73
2018-05-16T12:23:41.504Z,101146.32
2018-05-16T12:26:10.618Z,101152.23
2018-05-16T12:28:38.982Z,101143.64
2018-05-16T12:31:08.100Z,101140.26
2018-05-16T12:33:36.452Z,101134.75
2018-05-16T12:36:04.830Z,101135.25
2018-05-16T12:38:33.161Z,101140.62
2018-05-16T12:41:01.508Z,101128.56
2018-05-16T12:43:32.958Z,101126.62
2018-05-16T12:46:02.089Z,101133.72
2018-05-16T12:48:30.419Z,101136.00
2018-05-16T12:50:58.811Z,101127.52
2018-05-16T12:53:27.906Z,101134.66
2018-05-16T12:55:57.009Z,101131.39
2018-05-16T12:58:26.138Z,101126.80
2018-05-16T13:00:54.463Z,101131.36
2018-05-16T13:03:22.794Z,101127.27
2018-05-16T13:05:51.539Z,101134.36
2018-05-16T13:08:20.644Z,101129.30
2018-05-16T13:10:49.747Z,101131.80
2018-05-16T13:13:18.108Z,101142.23
2018-05-16T13:15:47.217Z,101134.52
2018-05-16T13:18:15.532Z,101139.06
2018-05-16T13:20:43.872Z,101132.05
2018-05-16T13:23:12.523Z,101129.84
2018-05-16T13:25:40.839Z,101131.56
2018-05-16T13:31:19.508Z,101133.78
2018-05-16T13:33:47.933Z,101129.43
2018-05-16T13:36:16.313Z,101139.21
2018-05-16T13:38:44.597Z,101128.09
2018-05-16T13:41:12.964Z,101132.63
2018-05-16T13:43:41.302Z,101138.79
2018-05-16T13:46:09.667Z,101141.94
2018-05-16T13:48:38.435Z,101125.91
2018-05-16T13:51:06.763Z,101122.78
2018-05-16T13:53:35.193Z,101137.47
2018-05-16T13:56:03.527Z,101132.30
2018-05-16T13:58:31.866Z,101128.72
2018-05-16T14:01:00.176Z,101135.52
2018-05-16T14:03:28.565Z,101134.02
2018-05-16T14:05:56.888Z,101130.39
2018-05-16T14:08:25.972Z,101130.80
2018-05-16T14:10:54.418Z,101131.93
2018-05-16T14:15:57.202Z,101137.08
2018-05-16T14:18:25.553Z,101145.03
2018-05-16T14:23:56.810Z,101140.11
2018-05-16T14:26:25.240Z,101139.69
2018-05-16T14:28:53.588Z,101137.84
2018-05-16T14:31:22.694Z,101130.41
2018-05-16T14:34:04.276Z,101128.94
2018-05-16T14:36:36.328Z,101126.75
2018-05-16T14:39:05.560Z,101127.05
2018-05-16T14:41:33.897Z,101130.38
2018-05-16T14:44:02.253Z,101126.25
2018-05-16T14:46:30.729Z,101127.28
2018-05-16T14:48:59.072Z,101128.86
2018-05-16T14:51:27.417Z,101132.48
2018-05-16T14:53:55.819Z,101123.88
2018-05-16T14:56:24.143Z,101123.78
2018-05-16T14:58:52.479Z,101123.27
2018-05-16T15:01:20.850Z,101123.30
2018-05-16T15:03:49.956Z,101119.49
2018-05-16T15:06:18.270Z,101116.11
2018-05-16T15:08:47.824Z,101118.11
2018-05-16T15:11:16.141Z,101108.31
2018-05-16T15:13:45.232Z,101109.56
2018-05-16T15:16:13.576Z,101104.92
2018-05-16T15:18:42.645Z,101107.44
2018-05-16T15:21:10.999Z,101105.85
2018-05-16T15:23:39.392Z,101107.59
2018-05-16T15:26:07.715Z,101104.97
2018-05-16T15:28:36.820Z,101096.03
2018-05-16T15:31:05.421Z,101097.70
2018-05-16T15:33:33.758Z,101095.59
2018-05-16T15:36:02.828Z,101103.57
2018-05-16T15:38:31.240Z,101098.27
2018-05-16T15:40:59.524Z,101105.72
2018-05-16T15:43:28.633Z,101093.67
2018-05-16T15:45:57.712Z,101094.59
2018-05-16T15:48:26.822Z,101098.33
2018-05-16T15:50:55.130Z,101091.23
2018-05-16T15:53:23.971Z,101092.62
2018-05-16T15:55:53.058Z,101091.45
2018-05-16T15:58:21.400Z,101100.55
2018-05-16T16:00:49.778Z,101092.19
2018-05-16T16:03:18.107Z,101096.43
2018-05-16T16:05:46.472Z,101088.66
2018-05-16T16:08:14.978Z,101087.81
2018-05-16T16:10:43.259Z,101089.31
2018-05-16T16:13:12.352Z,101085.55
2018-05-16T16:15:41.721Z,101082.61
2018-05-16T16:18:10.046Z,101087.92
2018-05-16T16:20:38.390Z,101084.05
2018-05-16T16:23:06.756Z,101083.16
2018-05-16T16:25:35.106Z,101083.27
2018-05-16T16:28:03.425Z,101085.38
2018-05-16T16:30:31.790Z,101083.88
2018-05-16T16:33:00.100Z,101085.55
2018-05-16T16:35:28.448Z,101082.55
2018-05-16T16:37:56.867Z,101081.20
2018-05-16T16:40:25.203Z,101081.04
2018-05-16T16:42:53.579Z,101081.31
2018-05-16T16:45:21.971Z,101091.05
2018-05-16T16:47:50.312Z,101089.94
2018-05-16T16:50:18.682Z,101089.25
2018-05-16T16:52:47.033Z,101098.79
2018-05-16T16:55:16.155Z,101091.11
2018-05-16T16:57:44.481Z,101092.18
2018-05-16T17:00:13.389Z,101092.14
2018-05-16T17:02:41.712Z,101093.78
2018-05-16T17:05:10.200Z,101081.50
2018-05-16T17:07:38.588Z,101087.98
2018-05-16T17:10:06.945Z,101094.00
2018-05-16T17:12:35.268Z,101090.27
2018-05-16T17:15:04.410Z,101092.52
2018-05-16T17:17:32.730Z,101091.25
2018-05-16T17:20:01.057Z,101098.32
2018-05-16T17:22:29.743Z,101094.23
2018-05-16T17:24:58.053Z,101099.61
2018-05-16T17:27:26.371Z,101097.61
2018-05-16T17:29:54.749Z,101099.76
2018-05-16T17:32:23.089Z,101096.89
2018-05-16T17:34:51.443Z,101105.97
2018-05-16T17:37:20.575Z,101098.95
2018-05-16T17:39:48.899Z,101098.83
2018-05-16T17:42:17.264Z,101094.53
2018-05-16T17:44:45.963Z,101100.76
2018-05-16T17:47:15.065Z,101103.66
2018-05-16T17:49:44.187Z,101105.68
2018-05-16T17:52:12.549Z,101106.30
2018-05-16T17:54:41.628Z,101110.41
2018-05-16T17:57:09.940Z,101114.64
2018-05-16T17:59:38.289Z,101115.97
2018-05-16T18:02:07.420Z,101105.90
2018-05-16T18:04:35.791Z,101118.13
2018-05-16T18:07:04.347Z,101118.17
2018-05-16T18:09:33.486Z,101120.54
2018-05-16T18:12:01.865Z,101123.48
2018-05-16T18:18:02.194Z,101121.20
2018-05-16T18:20:30.574Z,101126.66
2018-05-16T18:22:58.928Z,101123.81
2018-05-16T18:25:27.271Z,101118.83
2018-05-16T18:27:56.235Z,101120.53
2018-05-16T18:30:24.562Z,101122.47
2018-05-16T18:32:52.871Z,101121.36
2018-05-16T18:35:21.976Z,101126.98
2018-05-16T18:37:51.056Z,101123.84
2018-05-16T18:40:19.400Z,101127.73
2018-05-16T18:42:47.746Z,101129.96
2018-05-16T18:45:16.078Z,101135.58
2018-05-16T18:47:44.415Z,101137.20
2018-05-16T18:50:12.862Z,101142.28
2018-05-16T18:52:42.017Z,101140.41
2018-05-16T18:55:10.343Z,101141.95
2018-05-16T18:57:39.465Z,101145.32
2018-05-16T19:00:07.794Z,101146.16
2018-05-16T19:02:36.107Z,101149.94
2018-05-16T19:05:04.516Z,101147.71
2018-05-16T19:07:32.949Z,101156.12
2018-05-16T19:10:01.319Z,101153.52
2018-05-16T19:12:29.869Z,101158.69
2018-05-16T19:14:58.220Z,101164.97
2018-05-16T19:17:26.552Z,101166.62
2018-05-16T19:19:54.929Z,101165.42
2018-05-16T19:22:23.285Z,101165.20
2018-05-16T19:24:51.624Z,101171.27
2018-05-16T19:27:20.005Z,101169.63
2018-05-16T19:29:48.351Z,101176.43
2018-05-16T19:32:16.676Z,101180.77
2018-05-16T19:34:45.426Z,101188.47
2018-05-16T19:37:13.757Z,101185.02
2018-05-16T19:39:42.110Z,101196.55
2018-05-16T19:42:10.458Z,101196.41
2018-05-16T19:44:38.790Z,101201.83
2018-05-16T19:47:07.129Z,101207.64
2018-05-16T19:49:35.518Z,101212.72
2018-05-16T19:52:04.274Z,101218.28
2018-05-16T19:54:32.579Z,101216.30
2018-05-16T19:57:02.180Z,101223.84
2018-05-16T19:59:30.541Z,101233.13
2018-05-16T20:01:58.904Z,101230.98
2018-05-16T20:04:27.245Z,101238.73
2018-05-16T20:06:55.594Z,101241.69
2018-05-16T20:09:24.669Z,101229.78
2018-05-16T20:11:53.048Z,101236.16
2018-05-16T20:14:21.397Z,101241.03
2018-05-16T20:16:49.790Z,101239.52
2018-05-16T20:19:18.366Z,101234.36
2018-05-16T20:21:46.700Z,101233.43
2018-05-16T20:24:15.776Z,101235.94
2018-05-16T20:26:44.136Z,101238.23
2018-05-16T20:29:12.487Z,101234.30
2018-05-16T20:31:40.838Z,101242.52
2018-05-16T20:34:09.975Z,101252.42
2018-05-16T20:36:38.310Z,101248.19
2018-05-16T20:39:06.639Z,101253.28
2018-05-16T20:41:35.111Z,101259.05
2018-05-16T20:44:03.493Z,101255.33
2018-05-16T20:46:31.850Z,101259.70
2018-05-16T20:49:00.207Z,101264.07
2018-05-16T20:51:30.091Z,101263.22
2018-05-16T20:53:58.594Z,101258.80
2018-05-16T20:56:27.694Z,101262.86
2018-05-16T20:58:56.851Z,101258.03
2018-05-16T21:01:25.147Z,101261.58
2018-05-16T21:03:53.639Z,101265.88
2018-05-16T21:06:21.992Z,101273.76
2018-05-16T21:08:50.332Z,101275.09
2018-05-16T21:11:18.773Z,101275.41
2018-05-16T21:13:47.038Z,101273.08
2018-05-16T21:16:15.360Z,101263.73
2018-05-16T21:18:43.737Z,101275.23
2018-05-16T21:21:12.102Z,101271.42
2018-05-16T21:23:41.224Z,101267.63
2018-05-16T21:26:09.657Z,101265.11
2018-05-16T21:28:38.016Z,101271.80
2018-05-16T21:31:06.346Z,101274.77
2018-05-16T21:33:34.715Z,101275.84
2018-05-16T21:36:03.821Z,101278.78
2018-05-16T21:38:33.545Z,101283.56
2018-05-16T21:41:01.977Z,101280.86
2018-05-16T21:43:30.286Z,101286.91
2018-05-16T21:45:59.401Z,101283.73
2018-05-16T21:48:27.929Z,101282.82
2018-05-16T21:50:56.268Z,101278.02
2018-05-16T21:53:24.577Z,101283.47
2018-05-16T21:55:52.965Z,101286.57
2018-05-16T21:58:21.314Z,101275.50
2018-05-16T22:00:49.625Z,101281.83
2018-05-16T22:03:17.981Z,101290.70
2018-05-16T22:05:46.322Z,101292.33
2018-05-16T22:08:15.407Z,101295.76
2018-05-16T22:10:44.295Z,101297.77
2018-05-16T22:13:12.618Z,101296.38
2018-05-16T22:15:40.949Z,101296.39
2018-05-16T22:18:09.295Z,101301.59
2018-05-16T22:20:37.635Z,101301.56
2018-05-16T22:23:05.953Z,101299.34
2018-05-16T22:25:34.279Z,101302.94
2018-05-16T22:28:03.995Z,101302.52
2018-05-16T22:30:38.914Z,101306.09
2018-05-16T22:33:13.529Z,101304.83
2018-05-16T22:35:47.431Z,101303.88
2018-05-16T22:38:21.103Z,101293.09
2018-05-16T22:40:54.989Z,101299.72
2018-05-16T22:43:23.319Z,101296.86
2018-05-16T22:46:02.996Z,101300.77
2018-05-16T22:48:32.216Z,101298.95
2018-05-16T22:51:00.811Z,101305.81
2018-05-16T22:53:29.154Z,101310.80
2018-05-16T22:55:58.263Z,101311.70
2018-05-16T22:58:26.608Z,101309.51
2018-05-16T23:00:55.157Z,101312.11
2018-05-16T23:03:23.520Z,101319.12
2018-05-16T23:05:51.932Z,101321.90
2018-05-16T23:08:20.648Z,101321.29
2018-05-16T23:10:49.264Z,101320.71
2018-05-16T23:13:17.604Z,101325.45
2018-05-16T23:15:45.970Z,101317.34
2018-05-16T23:18:14.333Z,101323.80
2018-05-16T23:20:42.694Z,101322.29
2018-05-16T23:23:11.231Z,101326.62
2018-05-16T23:25:39.536Z,101332.22
2018-05-16T23:28:07.934Z,101326.61
2018-05-16T23:30:36.368Z,101323.56
2018-05-16T23:33:04.676Z,101324.52
2018-05-16T23:35:34.125Z,101321.47
2018-05-16T23:38:02.488Z,101328.14
2018-05-16T23:40:30.827Z,101320.48
2018-05-16T23:42:59.155Z,101327.29
2018-05-16T23:45:27.518Z,101324.77
2018-05-16T23:47:55.832Z,101333.09
2018-05-16T23:50:24.147Z,101331.23
2018-05-16T23:52:53.210Z,101334.00
2018-05-16T23:55:21.541Z,101320.89
2018-05-16T23:57:49.867Z,101332.52
